createdAt,value
2023-07-08T00:01:42.535Z,81.17
2023-07-08T00:04:12.107Z,81.58
2023-07-08T00:06:41.453Z,79.21
2023-07-08T00:09:12.684Z,77.78
2023-07-08T00:11:41.459Z,77.98
2023-07-08T00:14:10.647Z,80.10
2023-07-08T00:16:41.880Z,80.10
2023-07-08T00:19:12.563Z,81.22
2023-07-08T00:21:42.102Z,79.44
2023-07-08T00:24:10.837Z,78.86
2023-07-08T00:26:40.687Z,80.10
2023-07-08T00:29:13.609Z,81.51
2023-07-08T00:31:42.532Z,82.17
2023-07-08T00:34:12.388Z,82.16
2023-07-08T00:36:42.371Z,82.12
2023-07-08T00:39:15.877Z,81.81
2023-07-08T00:41:45.476Z,81.88
2023-07-08T00:44:14.908Z,82.47
2023-07-08T00:46:51.566Z,82.57
2023-07-08T00:49:39.237Z,80.06
2023-07-08T00:52:35.946Z,78.58
2023-07-08T00:55:10.691Z,80.58
2023-07-08T00:57:43.411Z,80.92
2023-07-08T01:00:17.662Z,81.26
2023-07-08T01:02:53.393Z,81.47
2023-07-08T01:05:26.518Z,81.72
2023-07-08T01:07:59.136Z,81.69
2023-07-08T01:10:38.181Z,81.75
2023-07-08T01:13:09.925Z,82.21
2023-07-08T01:15:42.632Z,82.13
2023-07-08T01:18:16.890Z,81.91
2023-07-08T01:20:48.547Z,81.87
2023-07-08T01:23:19.878Z,81.65
2023-07-08T01:25:49.080Z,81.31
2023-07-08T01:28:19.493Z,81.26
2023-07-08T01:30:50.422Z,80.41
2023-07-08T01:33:22.391Z,81.01
2023-07-08T01:35:53.142Z,81.43
2023-07-08T01:38:27.580Z,80.63
2023-07-08T01:40:58.547Z,79.77
2023-07-08T01:43:27.901Z,81.29
2023-07-08T01:46:01.830Z,82.13
2023-07-08T01:48:37.832Z,81.04
2023-07-08T01:51:08.718Z,80.17
2023-07-08T01:53:41.246Z,81.77
2023-07-08T01:56:11.555Z,82.56
2023-07-08T01:58:41.641Z,82.82
2023-07-08T02:01:14.780Z,81.98
2023-07-08T02:03:46.980Z,80.67
2023-07-08T02:06:16.408Z,81.25
2023-07-08T02:08:45.870Z,83.46
2023-07-08T02:11:15.320Z,82.76
2023-07-08T02:13:44.215Z,82.96
2023-07-08T02:16:14.059Z,83.54
2023-07-08T02:18:43.799Z,83.38
2023-07-08T02:21:13.873Z,83.37
2023-07-08T02:23:44.743Z,83.92
2023-07-08T02:26:14.902Z,83.92
2023-07-08T02:28:44.541Z,83.67
2023-07-08T02:31:13.343Z,82.68
2023-07-08T02:33:42.079Z,82.23
2023-07-08T02:36:13.661Z,80.93
2023-07-08T02:38:43.772Z,81.46
2023-07-08T02:41:12.597Z,82.09
2023-07-08T02:43:42.508Z,82.22
2023-07-08T02:46:11.721Z,82.60
2023-07-08T02:48:42.266Z,82.88
2023-07-08T02:51:11.848Z,81.80
2023-07-08T02:53:40.990Z,79.98
2023-07-08T02:56:09.639Z,79.92
2023-07-08T02:58:38.659Z,80.53
2023-07-08T03:01:07.812Z,80.62
2023-07-08T03:03:37.060Z,81.87
2023-07-08T03:06:06.805Z,82.18
2023-07-08T03:08:36.233Z,82.18
2023-07-08T03:11:08.022Z,82.23
2023-07-08T03:13:38.251Z,82.51
2023-07-08T03:16:12.897Z,83.15
2023-07-08T03:18:47.538Z,81.59
2023-07-08T03:21:18.526Z,78.96
2023-07-08T03:23:48.451Z,75.42
2023-07-08T03:26:19.561Z,72.49
2023-07-08T03:28:49.861Z,71.17
2023-07-08T03:31:19.459Z,69.11
2023-07-08T03:33:48.478Z,65.87
2023-07-08T03:36:24.337Z,63.06
2023-07-08T03:38:56.803Z,61.99
2023-07-08T03:41:26.617Z,59.23
2023-07-08T03:43:58.834Z,56.79
2023-07-08T03:46:29.016Z,54.82
2023-07-08T03:48:57.795Z,52.84
2023-07-08T03:51:30.322Z,51.27
2023-07-08T03:53:59.248Z,49.26
2023-07-08T03:56:28.605Z,47.46
2023-07-08T03:58:57.625Z,46.45
2023-07-08T04:01:27.241Z,45.50
2023-07-08T04:03:58.089Z,44.26
2023-07-08T04:06:27.324Z,43.20
2023-07-08T04:08:55.978Z,41.96
2023-07-08T04:11:26.306Z,41.38
2023-07-08T04:13:56.278Z,40.49
2023-07-08T04:16:29.600Z,39.50
2023-07-08T04:18:59.460Z,39.00
2023-07-08T04:21:30.699Z,38.41
2023-07-08T04:23:59.650Z,37.63
2023-07-08T04:26:28.509Z,36.98
2023-07-08T04:28:57.436Z,35.96
2023-07-08T04:31:26.621Z,35.27
2023-07-08T04:33:55.190Z,34.42
2023-07-08T04:36:25.427Z,33.22
2023-07-08T04:38:54.403Z,32.36
2023-07-08T04:41:23.432Z,31.53
2023-07-08T04:43:53.630Z,31.23
2023-07-08T04:46:31.559Z,31.05
2023-07-08T04:49:01.009Z,30.62
2023-07-08T04:51:30.419Z,30.66
2023-07-08T04:53:59.350Z,30.58
2023-07-08T04:56:38.375Z,30.47
2023-07-08T04:59:09.052Z,30.18
2023-07-08T05:01:38.302Z,29.65
2023-07-08T05:04:07.783Z,29.25
2023-07-08T05:06:36.601Z,28.86
2023-07-08T05:09:06.885Z,28.25
2023-07-08T05:11:36.323Z,27.96
2023-07-08T05:14:06.748Z,28.05
2023-07-08T05:16:36.669Z,28.22
2023-07-08T05:19:06.320Z,28.62
2023-07-08T05:21:35.369Z,28.61
2023-07-08T05:24:06.757Z,28.18
2023-07-08T05:26:36.114Z,27.72
2023-07-08T05:29:06.082Z,27.62
2023-07-08T05:34:06.812Z,27.61
2023-07-08T05:36:35.408Z,27.54
2023-07-08T05:39:05.085Z,26.91
2023-07-08T05:41:33.702Z,26.76
2023-07-08T05:44:02.664Z,27.28
2023-07-08T05:46:32.667Z,26.87
2023-07-08T05:49:02.214Z,27.60
2023-07-08T05:51:30.748Z,27.54
2023-07-08T05:53:59.659Z,26.41
2023-07-08T05:56:29.007Z,27.30
2023-07-08T05:58:57.590Z,27.05
2023-07-08T06:01:26.278Z,26.23
2023-07-08T06:03:58.537Z,26.34
2023-07-08T06:06:27.821Z,26.26
2023-07-08T06:08:57.234Z,25.01
2023-07-08T06:11:26.297Z,24.31
2023-07-08T06:13:54.957Z,23.89
2023-07-08T06:18:57.955Z,24.60
2023-07-08T06:21:26.452Z,24.54
2023-07-08T06:23:55.301Z,23.67
2023-07-08T06:26:26.285Z,22.55
2023-07-08T06:28:55.138Z,21.00
2023-07-08T06:31:24.171Z,20.89
2023-07-08T06:33:52.592Z,21.17
2023-07-08T06:36:21.813Z,20.64
2023-07-08T06:38:52.257Z,20.95
2023-07-08T06:41:21.012Z,20.49
2023-07-08T06:43:51.114Z,20.24
2023-07-08T06:46:21.191Z,21.15
2023-07-08T06:48:49.538Z,20.82
2023-07-08T06:51:18.593Z,21.01
2023-07-08T06:53:47.188Z,20.84
2023-07-08T06:56:15.807Z,20.69
2023-07-08T06:58:45.222Z,21.41
2023-07-08T07:01:13.873Z,21.25
2023-07-08T07:03:42.784Z,20.89
2023-07-08T07:06:11.500Z,21.19
2023-07-08T07:08:41.174Z,20.57
2023-07-08T07:11:10.337Z,21.60
2023-07-08T07:13:39.421Z,21.78
2023-07-08T07:16:07.948Z,21.88
2023-07-08T07:18:36.887Z,21.12
2023-07-08T07:21:07.837Z,20.64
2023-07-08T07:23:37.342Z,20.92
2023-07-08T07:26:06.410Z,20.98
2023-07-08T07:28:35.274Z,21.70
2023-07-08T07:31:06.900Z,21.80
2023-07-08T07:33:35.874Z,22.79
2023-07-08T07:36:06.041Z,23.92
2023-07-08T07:38:35.098Z,24.96
2023-07-08T07:41:06.517Z,24.41
2023-07-08T07:43:35.894Z,25.40
2023-07-08T07:46:06.121Z,26.21
2023-07-08T07:48:35.212Z,26.91
2023-07-08T07:51:05.171Z,28.03
2023-07-08T07:53:34.455Z,27.84
2023-07-08T07:56:05.123Z,28.55
2023-07-08T07:58:34.812Z,28.75
2023-07-08T08:01:04.229Z,28.71
2023-07-08T08:03:34.016Z,29.10
2023-07-08T08:06:04.087Z,29.84
2023-07-08T08:08:34.316Z,30.46
2023-07-08T08:11:04.918Z,30.51
2023-07-08T08:13:34.376Z,31.33
2023-07-08T08:16:04.733Z,29.74
2023-07-08T08:18:34.846Z,30.59
2023-07-08T08:21:04.674Z,31.65
2023-07-08T08:23:33.691Z,33.71
2023-07-08T08:26:04.217Z,33.10
2023-07-08T08:28:33.724Z,33.17
2023-07-08T08:31:03.025Z,32.80
2023-07-08T08:33:32.570Z,31.49
2023-07-08T08:36:03.053Z,30.56
2023-07-08T08:38:32.317Z,30.48
2023-07-08T08:41:05.795Z,31.07
2023-07-08T08:43:40.189Z,31.43
2023-07-08T08:46:16.288Z,31.65
2023-07-08T08:49:00.371Z,32.03
2023-07-08T08:51:33.002Z,31.82
2023-07-08T08:54:03.055Z,31.89
2023-07-08T08:56:40.400Z,31.46
2023-07-08T08:59:17.101Z,30.88
2023-07-08T09:01:48.713Z,31.49
2023-07-08T09:04:23.705Z,31.64
2023-07-08T09:06:58.000Z,31.86
2023-07-08T09:09:36.649Z,33.04
2023-07-08T09:12:10.920Z,34.27
2023-07-08T09:14:40.632Z,33.36
2023-07-08T09:17:19.973Z,33.45
2023-07-08T09:20:06.287Z,32.30
2023-07-08T09:22:44.009Z,31.66
2023-07-08T09:25:25.430Z,31.53
2023-07-08T09:27:54.894Z,30.98
2023-07-08T09:30:25.772Z,31.01
2023-07-08T09:32:54.886Z,30.85
2023-07-08T09:35:26.755Z,31.07
2023-07-08T09:37:56.893Z,31.07
2023-07-08T09:40:31.830Z,30.38
2023-07-08T09:43:04.977Z,30.60
2023-07-08T09:45:45.636Z,31.93
2023-07-08T09:48:20.800Z,32.30
2023-07-08T09:50:52.610Z,32.28
2023-07-08T09:53:22.045Z,31.99
2023-07-08T09:55:53.462Z,31.28
2023-07-08T09:58:26.386Z,30.79
2023-07-08T10:00:58.969Z,30.65
2023-07-08T10:03:32.359Z,30.91
2023-07-08T10:06:06.932Z,31.20
2023-07-08T10:08:43.658Z,31.06
2023-07-08T10:11:22.203Z,31.25
2023-07-08T10:14:11.714Z,31.20
2023-07-08T10:16:45.499Z,31.18
2023-07-08T10:19:21.528Z,31.22
2023-07-08T10:22:07.136Z,32.17
2023-07-08T10:25:02.658Z,32.52
2023-07-08T10:27:41.673Z,31.99
2023-07-08T10:30:23.227Z,32.00
2023-07-08T10:33:14.472Z,31.91
2023-07-08T10:35:56.842Z,31.46
2023-07-08T10:38:44.167Z,31.65
2023-07-08T10:41:26.006Z,32.77
2023-07-08T10:44:09.538Z,31.82
2023-07-08T10:47:01.991Z,31.18
2023-07-08T10:49:50.272Z,32.00
2023-07-08T10:52:39.431Z,32.60
2023-07-08T10:55:30.453Z,31.91
2023-07-08T10:58:21.995Z,32.26
2023-07-08T11:01:04.630Z,30.83
2023-07-08T11:04:00.222Z,31.42
2023-07-08T11:06:44.301Z,32.55
2023-07-08T11:09:20.647Z,32.44
2023-07-08T11:11:56.208Z,32.17
2023-07-08T11:14:33.076Z,31.39
2023-07-08T11:17:17.911Z,31.48
2023-07-08T11:19:56.921Z,31.56
2023-07-08T11:22:33.154Z,32.17
2023-07-08T11:25:18.738Z,31.60
2023-07-08T11:27:54.034Z,30.64
2023-07-08T11:30:30.826Z,30.79
2023-07-08T11:33:08.444Z,31.70
2023-07-08T11:35:45.845Z,31.70
2023-07-08T11:38:19.853Z,30.68
2023-07-08T11:40:58.106Z,31.04
2023-07-08T11:43:36.483Z,31.39
2023-07-08T11:46:14.632Z,31.91
2023-07-08T11:48:51.087Z,32.17
2023-07-08T11:51:31.251Z,32.98
2023-07-08T11:54:13.590Z,32.94
2023-07-08T11:56:59.954Z,32.37
2023-07-08T11:59:35.218Z,31.08
2023-07-08T12:02:13.988Z,31.92
2023-07-08T12:05:04.231Z,31.36
2023-07-08T12:07:39.857Z,30.66
2023-07-08T12:10:18.827Z,30.73
2023-07-08T12:12:50.705Z,30.98
2023-07-08T12:15:27.618Z,30.02
2023-07-08T12:18:04.207Z,30.22
2023-07-08T12:20:39.464Z,30.58
2023-07-08T12:23:16.177Z,30.49
2023-07-08T12:25:49.978Z,30.65
2023-07-08T12:28:24.376Z,30.81
2023-07-08T12:31:00.693Z,30.42
2023-07-08T12:33:35.312Z,30.75
2023-07-08T12:36:11.380Z,30.54
2023-07-08T12:38:46.568Z,29.98
2023-07-08T12:41:23.926Z,30.41
2023-07-08T12:43:55.894Z,30.40
2023-07-08T12:46:29.156Z,30.35
2023-07-08T12:49:01.287Z,30.61
2023-07-08T12:51:33.661Z,30.17
2023-07-08T12:54:06.539Z,29.21
2023-07-08T12:56:39.687Z,29.35
2023-07-08T12:59:14.532Z,29.77
2023-07-08T13:01:50.490Z,29.78
2023-07-08T13:04:22.971Z,29.82
2023-07-08T13:06:56.393Z,29.50
2023-07-08T13:09:39.677Z,29.80
2023-07-08T13:12:19.166Z,29.27
2023-07-08T13:14:53.222Z,28.80
2023-07-08T13:17:25.332Z,28.29
2023-07-08T13:19:57.979Z,28.69
2023-07-08T13:22:31.791Z,28.71
2023-07-08T13:25:16.099Z,28.67
2023-07-08T13:27:58.482Z,29.01
2023-07-08T13:30:32.277Z,28.44
2023-07-08T13:33:05.075Z,28.29
2023-07-08T13:35:42.942Z,29.07
2023-07-08T13:38:19.702Z,28.93
2023-07-08T13:40:55.371Z,28.93
2023-07-08T13:43:31.842Z,29.42
2023-07-08T13:46:03.992Z,29.17
2023-07-08T13:48:41.224Z,28.20
2023-07-08T13:51:19.053Z,28.18
2023-07-08T13:53:55.684Z,27.97
2023-07-08T13:56:32.892Z,28.35
2023-07-08T13:59:07.834Z,28.62
2023-07-08T14:01:44.577Z,29.18
2023-07-08T14:04:20.845Z,29.60
2023-07-08T14:06:53.179Z,30.00
2023-07-08T14:09:26.548Z,30.13
2023-07-08T14:11:58.867Z,30.09
2023-07-08T14:14:30.860Z,29.92
2023-07-08T14:17:03.626Z,29.69
2023-07-08T14:19:37.581Z,28.67
2023-07-08T14:22:25.707Z,29.16
2023-07-08T14:24:59.246Z,28.69
2023-07-08T14:27:32.956Z,28.67
2023-07-08T14:30:05.843Z,28.27
2023-07-08T14:32:38.070Z,28.59
2023-07-08T14:35:20.210Z,28.80
2023-07-08T14:37:52.092Z,28.73
2023-07-08T14:40:27.973Z,28.63
2023-07-08T14:43:04.516Z,28.87
2023-07-08T14:45:45.624Z,29.18
2023-07-08T14:48:18.867Z,29.23
2023-07-08T14:50:51.024Z,29.39
2023-07-08T14:53:23.205Z,29.57
2023-07-08T14:55:59.638Z,29.53
2023-07-08T14:58:34.999Z,29.38
2023-07-08T15:01:15.572Z,29.50
2023-07-08T15:03:48.057Z,29.51
2023-07-08T15:06:20.329Z,28.91
2023-07-08T15:08:53.212Z,28.80
2023-07-08T15:11:27.540Z,28.68
2023-07-08T15:13:59.860Z,29.12
2023-07-08T15:16:32.779Z,29.53
2023-07-08T15:19:10.300Z,29.53
2023-07-08T15:21:42.889Z,29.58
2023-07-08T15:24:16.568Z,29.19
2023-07-08T15:26:51.477Z,29.13
2023-07-08T15:29:25.898Z,29.05
2023-07-08T15:31:59.349Z,28.96
2023-07-08T15:34:31.511Z,29.30
2023-07-08T15:37:04.029Z,29.93
2023-07-08T15:39:36.130Z,30.34
2023-07-08T15:42:12.405Z,30.08
2023-07-08T15:44:44.850Z,30.04
2023-07-08T15:47:17.077Z,29.60
2023-07-08T15:49:49.529Z,30.06
2023-07-08T15:52:21.439Z,30.30
2023-07-08T15:54:55.413Z,30.64
2023-07-08T15:57:28.230Z,30.74
2023-07-08T16:00:00.329Z,30.99
2023-07-08T16:02:36.311Z,30.77
2023-07-08T16:05:11.710Z,30.55
2023-07-08T16:07:43.809Z,31.23
2023-07-08T16:10:16.006Z,31.24
2023-07-08T16:12:50.493Z,31.05
2023-07-08T16:15:29.484Z,30.63
2023-07-08T16:18:03.082Z,30.24
2023-07-08T16:20:35.066Z,30.33
2023-07-08T16:23:07.537Z,30.41
2023-07-08T16:25:44.940Z,30.17
2023-07-08T16:28:24.182Z,30.46
2023-07-08T16:30:57.034Z,30.68
2023-07-08T16:33:30.559Z,30.93
2023-07-08T16:36:02.800Z,31.57
2023-07-08T16:38:34.530Z,31.35
2023-07-08T16:41:07.186Z,31.07
2023-07-08T16:43:40.135Z,30.55
2023-07-08T16:46:13.681Z,30.93
2023-07-08T16:48:45.925Z,32.60
2023-07-08T16:51:20.464Z,32.44
2023-07-08T16:53:53.585Z,32.93
2023-07-08T16:56:26.148Z,33.38
2023-07-08T16:59:00.116Z,32.99
2023-07-08T17:01:33.649Z,35.18
2023-07-08T17:04:07.714Z,37.18
2023-07-08T17:06:40.735Z,38.19
2023-07-08T17:09:15.353Z,37.63
2023-07-08T17:11:47.852Z,38.45
2023-07-08T17:14:20.568Z,39.82
2023-07-08T17:16:53.943Z,38.32
2023-07-08T17:19:25.758Z,38.92
2023-07-08T17:21:57.813Z,38.41
2023-07-08T17:24:29.939Z,38.86
2023-07-08T17:27:02.155Z,38.39
2023-07-08T17:29:34.745Z,39.21
2023-07-08T17:32:10.423Z,39.85
2023-07-08T17:34:42.561Z,41.29
2023-07-08T17:37:14.730Z,41.93
2023-07-08T17:39:46.626Z,43.77
2023-07-08T17:42:18.231Z,45.33
2023-07-08T17:44:50.433Z,44.87
2023-07-08T17:47:23.561Z,48.09
2023-07-08T17:49:56.452Z,47.30
2023-07-08T17:52:28.161Z,46.35
2023-07-08T17:55:00.743Z,47.22
2023-07-08T17:57:33.953Z,45.61
2023-07-08T18:00:11.003Z,45.40
2023-07-08T18:02:45.276Z,45.81
2023-07-08T18:05:20.881Z,46.12
2023-07-08T18:07:55.688Z,45.78
2023-07-08T18:10:30.497Z,46.90
2023-07-08T18:13:08.730Z,48.14
2023-07-08T18:15:58.487Z,49.23
2023-07-08T18:18:32.046Z,47.83
2023-07-08T18:21:04.378Z,50.16
2023-07-08T18:23:36.853Z,50.67
2023-07-08T18:26:10.421Z,50.89
2023-07-08T18:28:43.084Z,50.58
2023-07-08T18:31:15.948Z,51.00
2023-07-08T18:33:48.437Z,51.57
2023-07-08T18:36:20.863Z,50.16
2023-07-08T18:38:54.298Z,50.23
2023-07-08T18:41:29.508Z,50.57
2023-07-08T18:44:02.567Z,51.36
2023-07-08T18:46:35.941Z,52.45
2023-07-08T18:49:09.418Z,53.55
2023-07-08T18:51:44.202Z,55.17
2023-07-08T18:54:20.783Z,56.10
2023-07-08T18:56:53.478Z,57.79
2023-07-08T18:59:26.372Z,57.51
2023-07-08T19:01:59.177Z,58.20
2023-07-08T19:04:32.224Z,58.83
2023-07-08T19:07:07.292Z,59.96
2023-07-08T19:09:40.635Z,60.87
2023-07-08T19:12:14.178Z,61.33
2023-07-08T19:14:46.490Z,61.07
2023-07-08T19:17:18.484Z,61.41
2023-07-08T19:19:51.334Z,62.15
2023-07-08T19:22:24.303Z,62.30
2023-07-08T19:24:57.164Z,62.46
2023-07-08T19:27:29.437Z,62.47
2023-07-08T19:30:03.080Z,62.72
2023-07-08T19:32:35.910Z,63.09
2023-07-08T19:35:12.854Z,64.18
2023-07-08T19:37:44.758Z,64.34
2023-07-08T19:40:20.406Z,65.08
2023-07-08T19:42:54.969Z,65.45
2023-07-08T19:45:29.820Z,65.88
2023-07-08T19:48:01.738Z,66.40
2023-07-08T19:50:33.666Z,66.51
2023-07-08T19:53:06.204Z,66.86
2023-07-08T19:55:39.637Z,66.51
2023-07-08T19:58:15.296Z,66.85
2023-07-08T20:00:48.651Z,66.58
2023-07-08T20:03:21.689Z,66.91
2023-07-08T20:05:53.806Z,67.16
2023-07-08T20:08:31.614Z,67.46
2023-07-08T20:11:03.207Z,67.81
2023-07-08T20:13:36.338Z,68.04
2023-07-08T20:16:17.141Z,67.78
2023-07-08T20:18:50.215Z,68.37
2023-07-08T20:21:22.775Z,68.89
2023-07-08T20:23:55.834Z,68.75
2023-07-08T20:26:34.072Z,69.35
2023-07-08T20:29:06.783Z,69.03
2023-07-08T20:31:43.035Z,69.15
2023-07-08T20:34:18.691Z,69.76
2023-07-08T20:36:52.135Z,70.45
2023-07-08T20:39:29.123Z,69.89
2023-07-08T20:42:07.183Z,70.48
2023-07-08T20:44:56.922Z,71.08
2023-07-08T20:47:30.263Z,71.35
2023-07-08T20:50:03.479Z,71.67
2023-07-08T20:52:36.370Z,71.96
2023-07-08T20:55:12.509Z,72.62
2023-07-08T20:57:47.787Z,72.92
2023-07-08T21:00:32.007Z,73.13
2023-07-08T21:03:12.012Z,73.41
2023-07-08T21:05:44.306Z,73.49
2023-07-08T21:08:28.611Z,73.64
2023-07-08T21:11:01.625Z,72.67
2023-07-08T21:13:34.298Z,72.53
2023-07-08T21:16:12.851Z,73.40
2023-07-08T21:18:46.543Z,72.75
2023-07-08T21:21:20.375Z,71.49
2023-07-08T21:23:54.760Z,70.87
2023-07-08T21:26:30.571Z,71.50
2023-07-08T21:29:05.274Z,72.47
2023-07-08T21:31:37.984Z,72.68
2023-07-08T21:34:11.834Z,73.97
2023-07-08T21:36:48.047Z,75.87
2023-07-08T21:39:29.531Z,77.04
2023-07-08T21:42:04.782Z,76.79
2023-07-08T21:44:36.886Z,77.20
2023-07-08T21:47:09.714Z,77.40
2023-07-08T21:49:42.103Z,78.06
2023-07-08T21:52:15.995Z,77.81
2023-07-08T21:54:47.925Z,77.49
2023-07-08T21:57:20.784Z,75.56
2023-07-08T21:59:52.968Z,75.06
2023-07-08T22:02:26.278Z,74.59
2023-07-08T22:04:59.489Z,74.76
2023-07-08T22:07:31.407Z,74.81
2023-07-08T22:10:03.882Z,75.56
2023-07-08T22:12:37.992Z,75.99
2023-07-08T22:15:23.361Z,76.49
2023-07-08T22:18:00.556Z,77.72
2023-07-08T22:20:33.774Z,78.86
2023-07-08T22:23:06.781Z,79.30
2023-07-08T22:25:38.932Z,78.95
2023-07-08T22:28:13.493Z,79.04
2023-07-08T22:30:47.341Z,78.70
2023-07-08T22:33:24.012Z,79.04
2023-07-08T22:35:58.353Z,78.76
2023-07-08T22:38:31.834Z,79.15
2023-07-08T22:41:04.009Z,79.29
2023-07-08T22:43:38.012Z,79.12
2023-07-08T22:46:11.820Z,79.03
2023-07-08T22:48:46.600Z,78.93
2023-07-08T22:51:18.779Z,78.70
2023-07-08T22:53:51.054Z,78.73
2023-07-08T22:56:23.127Z,78.82
2023-07-08T22:58:55.352Z,79.06
2023-07-08T23:01:26.985Z,79.09
2023-07-08T23:03:59.205Z,78.88
2023-07-08T23:06:32.906Z,78.06
2023-07-08T23:09:05.376Z,75.90
2023-07-08T23:11:37.737Z,76.58
2023-07-08T23:14:10.760Z,78.42
2023-07-08T23:16:43.157Z,79.61
2023-07-08T23:19:15.167Z,80.01
2023-07-08T23:21:48.222Z,80.08
2023-07-08T23:24:20.100Z,80.24
2023-07-08T23:26:52.325Z,80.20
2023-07-08T23:29:26.128Z,80.06
2023-07-08T23:31:59.814Z,79.38
2023-07-08T23:34:31.704Z,79.55
2023-07-08T23:37:04.565Z,79.88
2023-07-08T23:39:36.358Z,80.12
2023-07-08T23:42:13.064Z,80.17
2023-07-08T23:44:45.232Z,79.95
2023-07-08T23:47:23.497Z,80.00
2023-07-08T23:49:55.895Z,80.33
2023-07-08T23:52:28.566Z,80.51
2023-07-08T23:55:01.128Z,80.67
2023-07-08T23:57:33.035Z,80.53
